sensor_id;sensor_type;location;lat;lon;timestamp;P1;durP1;ratioP1;P2;durP2;ratioP2
43706;SDS011;61348;53.392;-6.248;2023-08-24T00:01:52;4.60;;;1.25;;
43706;SDS011;61348;53.392;-6.248;2023-08-24T00:04:19;6.25;;;1.83;;
43706;SDS011;61348;53.392;-6.248;2023-08-24T00:06:46;8.25;;;2.22;;
43706;SDS011;61348;53.392;-6.248;2023-08-24T00:09:13;6.95;;;1.55;;
43706;SDS011;61348;53.392;-6.248;2023-08-24T00:11:41;3.08;;;1.33;;
43706;SDS011;61348;53.392;-6.248;2023-08-24T00:14:09;2.88;;;1.45;;
43706;SDS011;61348;53.392;-6.248;2023-08-24T00:16:36;9.85;;;2.20;;
43706;SDS011;61348;53.392;-6.248;2023-08-24T00:19:03;9.45;;;1.65;;
43706;SDS011;61348;53.392;-6.248;2023-08-24T00:21:30;7.93;;;1.73;;
43706;SDS011;61348;53.392;-6.248;2023-08-24T00:23:56;6.20;;;1.48;;
43706;SDS011;61348;53.392;-6.248;2023-08-24T00:26:23;7.07;;;2.00;;
43706;SDS011;61348;53.392;-6.248;2023-08-24T00:28:50;7.80;;;1.67;;
43706;SDS011;61348;53.392;-6.248;2023-08-24T00:31:18;5.57;;;1.70;;
43706;SDS011;61348;53.392;-6.248;2023-08-24T00:33:45;7.53;;;2.05;;
43706;SDS011;61348;53.392;-6.248;2023-08-24T00:36:12;5.93;;;1.30;;
43706;SDS011;61348;53.392;-6.248;2023-08-24T00:38:39;8.30;;;2.50;;
43706;SDS011;61348;53.392;-6.248;2023-08-24T00:41:05;4.63;;;1.30;;
43706;SDS011;61348;53.392;-6.248;2023-08-24T00:43:32;11.15;;;1.60;;
43706;SDS011;61348;53.392;-6.248;2023-08-24T00:45:59;5.70;;;1.77;;
43706;SDS011;61348;53.392;-6.248;2023-08-24T00:48:27;11.25;;;1.85;;
43706;SDS011;61348;53.392;-6.248;2023-08-24T00:51:00;6.18;;;1.50;;
43706;SDS011;61348;53.392;-6.248;2023-08-24T00:53:28;4.90;;;1.40;;
43706;SDS011;61348;53.392;-6.248;2023-08-24T00:55:57;8.23;;;3.00;;
43706;SDS011;61348;53.392;-6.248;2023-08-24T00:58:24;7.38;;;1.77;;
43706;SDS011;61348;53.392;-6.248;2023-08-24T01:00:54;6.03;;;1.73;;
43706;SDS011;61348;53.392;-6.248;2023-08-24T01:03:23;11.70;;;2.83;;
43706;SDS011;61348;53.392;-6.248;2023-08-24T01:05:51;2.55;;;1.58;;
43706;SDS011;61348;53.392;-6.248;2023-08-24T01:08:19;4.80;;;1.63;;
43706;SDS011;61348;53.392;-6.248;2023-08-24T01:10:51;13.07;;;2.53;;
43706;SDS011;61348;53.392;-6.248;2023-08-24T01:13:44;4.22;;;1.40;;
43706;SDS011;61348;53.392;-6.248;2023-08-24T01:16:18;5.63;;;1.63;;
43706;SDS011;61348;53.392;-6.248;2023-08-24T01:18:47;3.35;;;1.30;;
43706;SDS011;61348;53.392;-6.248;2023-08-24T01:21:15;5.85;;;2.25;;
43706;SDS011;61348;53.392;-6.248;2023-08-24T01:26:45;6.85;;;2.50;;
43706;SDS011;61348;53.392;-6.248;2023-08-24T01:29:14;5.45;;;1.70;;
43706;SDS011;61348;53.392;-6.248;2023-08-24T01:31:41;5.00;;;1.92;;
43706;SDS011;61348;53.392;-6.248;2023-08-24T01:34:08;6.57;;;2.78;;
43706;SDS011;61348;53.392;-6.248;2023-08-24T01:36:35;7.95;;;2.45;;
43706;SDS011;61348;53.392;-6.248;2023-08-24T01:39:25;7.47;;;2.22;;
43706;SDS011;61348;53.392;-6.248;2023-08-24T01:41:54;7.47;;;2.03;;
43706;SDS011;61348;53.392;-6.248;2023-08-24T01:44:26;7.45;;;1.60;;
43706;SDS011;61348;53.392;-6.248;2023-08-24T01:46:56;5.47;;;1.63;;
43706;SDS011;61348;53.392;-6.248;2023-08-24T01:49:25;4.35;;;1.88;;
43706;SDS011;61348;53.392;-6.248;2023-08-24T01:51:53;6.70;;;1.80;;
43706;SDS011;61348;53.392;-6.248;2023-08-24T01:54:20;7.85;;;1.88;;
43706;SDS011;61348;53.392;-6.248;2023-08-24T01:56:47;7.40;;;1.70;;
43706;SDS011;61348;53.392;-6.248;2023-08-24T01:59:14;5.80;;;1.98;;
43706;SDS011;61348;53.392;-6.248;2023-08-24T02:01:41;7.65;;;2.20;;
43706;SDS011;61348;53.392;-6.248;2023-08-24T02:04:07;6.50;;;1.42;;
43706;SDS011;61348;53.392;-6.248;2023-08-24T02:06:34;5.10;;;2.05;;
43706;SDS011;61348;53.392;-6.248;2023-08-24T02:09:01;6.95;;;2.10;;
43706;SDS011;61348;53.392;-6.248;2023-08-24T02:11:29;7.72;;;2.15;;
43706;SDS011;61348;53.392;-6.248;2023-08-24T02:13:56;7.38;;;1.83;;
43706;SDS011;61348;53.392;-6.248;2023-08-24T02:16:22;5.13;;;2.15;;
43706;SDS011;61348;53.392;-6.248;2023-08-24T02:18:49;4.80;;;1.75;;
43706;SDS011;61348;53.392;-6.248;2023-08-24T02:21:16;5.50;;;1.58;;
43706;SDS011;61348;53.392;-6.248;2023-08-24T02:23:43;7.90;;;2.00;;
43706;SDS011;61348;53.392;-6.248;2023-08-24T02:26:09;3.45;;;1.58;;
43706;SDS011;61348;53.392;-6.248;2023-08-24T02:28:36;5.97;;;1.55;;
43706;SDS011;61348;53.392;-6.248;2023-08-24T02:31:04;5.57;;;1.60;;
43706;SDS011;61348;53.392;-6.248;2023-08-24T02:33:31;7.35;;;2.10;;
43706;SDS011;61348;53.392;-6.248;2023-08-24T02:35:59;4.78;;;1.58;;
43706;SDS011;61348;53.392;-6.248;2023-08-24T02:38:27;10.63;;;2.38;;
43706;SDS011;61348;53.392;-6.248;2023-08-24T02:41:03;6.63;;;1.55;;
43706;SDS011;61348;53.392;-6.248;2023-08-24T02:43:32;4.35;;;1.30;;
43706;SDS011;61348;53.392;-6.248;2023-08-24T02:46:00;7.50;;;2.20;;
43706;SDS011;61348;53.392;-6.248;2023-08-24T02:48:31;5.15;;;2.70;;
43706;SDS011;61348;53.392;-6.248;2023-08-24T02:50:59;5.35;;;1.65;;
43706;SDS011;61348;53.392;-6.248;2023-08-24T02:53:26;7.05;;;1.70;;
43706;SDS011;61348;53.392;-6.248;2023-08-24T02:55:53;7.80;;;1.35;;
43706;SDS011;61348;53.392;-6.248;2023-08-24T02:58:21;7.43;;;1.58;;
43706;SDS011;61348;53.392;-6.248;2023-08-24T03:00:49;6.70;;;1.75;;
43706;SDS011;61348;53.392;-6.248;2023-08-24T03:03:33;7.63;;;1.73;;
43706;SDS011;61348;53.392;-6.248;2023-08-24T03:06:02;4.80;;;1.63;;
43706;SDS011;61348;53.392;-6.248;2023-08-24T03:08:30;2.83;;;1.65;;
43706;SDS011;61348;53.392;-6.248;2023-08-24T03:10:58;4.93;;;1.67;;
43706;SDS011;61348;53.392;-6.248;2023-08-24T03:13:26;8.43;;;2.00;;
43706;SDS011;61348;53.392;-6.248;2023-08-24T03:15:53;3.22;;;1.50;;
43706;SDS011;61348;53.392;-6.248;2023-08-24T03:18:21;3.97;;;1.77;;
43706;SDS011;61348;53.392;-6.248;2023-08-24T03:20:48;7.30;;;1.80;;
43706;SDS011;61348;53.392;-6.248;2023-08-24T03:23:16;8.48;;;2.00;;
43706;SDS011;61348;53.392;-6.248;2023-08-24T03:25:43;8.80;;;3.08;;
43706;SDS011;61348;53.392;-6.248;2023-08-24T03:28:10;6.82;;;2.13;;
43706;SDS011;61348;53.392;-6.248;2023-08-24T03:30:37;6.45;;;1.65;;
43706;SDS011;61348;53.392;-6.248;2023-08-24T03:33:05;9.48;;;1.90;;
43706;SDS011;61348;53.392;-6.248;2023-08-24T03:35:32;5.30;;;2.72;;
43706;SDS011;61348;53.392;-6.248;2023-08-24T03:38:00;4.35;;;1.83;;
43706;SDS011;61348;53.392;-6.248;2023-08-24T03:40:26;7.28;;;2.28;;
43706;SDS011;61348;53.392;-6.248;2023-08-24T03:42:53;4.97;;;1.50;;
43706;SDS011;61348;53.392;-6.248;2023-08-24T03:45:20;4.57;;;1.60;;
43706;SDS011;61348;53.392;-6.248;2023-08-24T03:47:48;8.65;;;3.35;;
43706;SDS011;61348;53.392;-6.248;2023-08-24T03:50:16;4.38;;;1.67;;
43706;SDS011;61348;53.392;-6.248;2023-08-24T03:52:43;4.47;;;1.75;;
43706;SDS011;61348;53.392;-6.248;2023-08-24T03:55:10;4.50;;;2.28;;
43706;SDS011;61348;53.392;-6.248;2023-08-24T03:57:37;7.00;;;1.85;;
43706;SDS011;61348;53.392;-6.248;2023-08-24T04:00:06;7.13;;;2.08;;
43706;SDS011;61348;53.392;-6.248;2023-08-24T04:02:38;3.40;;;1.65;;
43706;SDS011;61348;53.392;-6.248;2023-08-24T04:05:05;3.45;;;1.75;;
43706;SDS011;61348;53.392;-6.248;2023-08-24T04:07:32;5.53;;;1.95;;
43706;SDS011;61348;53.392;-6.248;2023-08-24T04:10:02;4.22;;;1.40;;
43706;SDS011;61348;53.392;-6.248;2023-08-24T04:12:33;5.40;;;1.70;;
43706;SDS011;61348;53.392;-6.248;2023-08-24T04:15:00;3.17;;;1.45;;
43706;SDS011;61348;53.392;-6.248;2023-08-24T04:17:26;8.60;;;4.28;;
43706;SDS011;61348;53.392;-6.248;2023-08-24T04:19:53;8.23;;;2.13;;
43706;SDS011;61348;53.392;-6.248;2023-08-24T04:22:20;8.63;;;1.95;;
43706;SDS011;61348;53.392;-6.248;2023-08-24T04:24:47;3.78;;;1.60;;
43706;SDS011;61348;53.392;-6.248;2023-08-24T04:27:14;3.55;;;1.35;;
43706;SDS011;61348;53.392;-6.248;2023-08-24T04:29:40;6.13;;;1.83;;
43706;SDS011;61348;53.392;-6.248;2023-08-24T04:32:07;8.27;;;1.88;;
43706;SDS011;61348;53.392;-6.248;2023-08-24T04:34:34;3.80;;;1.98;;
43706;SDS011;61348;53.392;-6.248;2023-08-24T04:37:01;6.43;;;2.03;;
43706;SDS011;61348;53.392;-6.248;2023-08-24T04:39:29;7.28;;;1.85;;
43706;SDS011;61348;53.392;-6.248;2023-08-24T04:41:57;6.55;;;1.77;;
43706;SDS011;61348;53.392;-6.248;2023-08-24T04:44:23;5.40;;;1.80;;
43706;SDS011;61348;53.392;-6.248;2023-08-24T04:46:53;7.13;;;1.50;;
43706;SDS011;61348;53.392;-6.248;2023-08-24T04:49:20;8.25;;;1.80;;
43706;SDS011;61348;53.392;-6.248;2023-08-24T04:51:47;4.95;;;2.20;;
43706;SDS011;61348;53.392;-6.248;2023-08-24T04:54:14;2.75;;;1.77;;
43706;SDS011;61348;53.392;-6.248;2023-08-24T04:56:40;6.03;;;1.80;;
43706;SDS011;61348;53.392;-6.248;2023-08-24T04:59:08;5.35;;;1.80;;
43706;SDS011;61348;53.392;-6.248;2023-08-24T05:01:35;6.40;;;2.30;;
43706;SDS011;61348;53.392;-6.248;2023-08-24T05:04:02;8.15;;;2.22;;
43706;SDS011;61348;53.392;-6.248;2023-08-24T05:06:29;3.67;;;1.60;;
43706;SDS011;61348;53.392;-6.248;2023-08-24T05:08:56;4.10;;;1.27;;
43706;SDS011;61348;53.392;-6.248;2023-08-24T05:11:24;6.25;;;1.80;;
43706;SDS011;61348;53.392;-6.248;2023-08-24T05:13:55;5.43;;;1.27;;
43706;SDS011;61348;53.392;-6.248;2023-08-24T05:16:22;9.18;;;1.92;;
43706;SDS011;61348;53.392;-6.248;2023-08-24T05:18:49;4.63;;;1.95;;
43706;SDS011;61348;53.392;-6.248;2023-08-24T05:21:16;7.63;;;1.90;;
43706;SDS011;61348;53.392;-6.248;2023-08-24T05:23:43;4.85;;;1.58;;
43706;SDS011;61348;53.392;-6.248;2023-08-24T05:26:10;6.05;;;1.63;;
43706;SDS011;61348;53.392;-6.248;2023-08-24T05:28:36;4.68;;;1.30;;
43706;SDS011;61348;53.392;-6.248;2023-08-24T05:31:03;2.30;;;1.25;;
43706;SDS011;61348;53.392;-6.248;2023-08-24T05:33:30;7.78;;;3.50;;
43706;SDS011;61348;53.392;-6.248;2023-08-24T05:35:57;7.78;;;3.08;;
43706;SDS011;61348;53.392;-6.248;2023-08-24T05:38:25;6.78;;;1.55;;
43706;SDS011;61348;53.392;-6.248;2023-08-24T05:40:52;4.15;;;1.33;;
43706;SDS011;61348;53.392;-6.248;2023-08-24T05:43:18;7.75;;;2.63;;
43706;SDS011;61348;53.392;-6.248;2023-08-24T05:45:47;6.57;;;1.73;;
43706;SDS011;61348;53.392;-6.248;2023-08-24T05:48:14;6.05;;;1.65;;
43706;SDS011;61348;53.392;-6.248;2023-08-24T05:50:42;5.82;;;2.38;;
43706;SDS011;61348;53.392;-6.248;2023-08-24T05:53:12;4.53;;;1.58;;
43706;SDS011;61348;53.392;-6.248;2023-08-24T05:55:39;6.75;;;2.17;;
43706;SDS011;61348;53.392;-6.248;2023-08-24T05:58:06;4.85;;;1.90;;
43706;SDS011;61348;53.392;-6.248;2023-08-24T06:00:33;5.32;;;1.80;;
43706;SDS011;61348;53.392;-6.248;2023-08-24T06:03:00;5.15;;;1.65;;
43706;SDS011;61348;53.392;-6.248;2023-08-24T06:05:27;8.02;;;1.60;;
43706;SDS011;61348;53.392;-6.248;2023-08-24T06:07:53;6.78;;;1.80;;
43706;SDS011;61348;53.392;-6.248;2023-08-24T06:10:22;2.08;;;1.38;;
43706;SDS011;61348;53.392;-6.248;2023-08-24T06:12:49;6.50;;;1.83;;
43706;SDS011;61348;53.392;-6.248;2023-08-24T06:15:16;5.20;;;1.90;;
43706;SDS011;61348;53.392;-6.248;2023-08-24T06:17:43;4.03;;;1.65;;
43706;SDS011;61348;53.392;-6.248;2023-08-24T06:20:09;5.03;;;1.40;;
43706;SDS011;61348;53.392;-6.248;2023-08-24T06:22:37;8.18;;;3.30;;
43706;SDS011;61348;53.392;-6.248;2023-08-24T06:25:04;6.22;;;1.95;;
43706;SDS011;61348;53.392;-6.248;2023-08-24T06:27:31;2.92;;;1.50;;
43706;SDS011;61348;53.392;-6.248;2023-08-24T06:29:58;4.88;;;1.85;;
43706;SDS011;61348;53.392;-6.248;2023-08-24T06:32:25;6.50;;;2.10;;
43706;SDS011;61348;53.392;-6.248;2023-08-24T06:34:51;5.75;;;2.08;;
43706;SDS011;61348;53.392;-6.248;2023-08-24T06:37:18;11.70;;;2.90;;
43706;SDS011;61348;53.392;-6.248;2023-08-24T06:39:45;5.20;;;1.88;;
43706;SDS011;61348;53.392;-6.248;2023-08-24T06:42:12;4.97;;;1.63;;
43706;SDS011;61348;53.392;-6.248;2023-08-24T06:44:38;8.57;;;2.10;;
43706;SDS011;61348;53.392;-6.248;2023-08-24T06:47:05;4.63;;;1.73;;
43706;SDS011;61348;53.392;-6.248;2023-08-24T06:49:32;3.25;;;2.10;;
43706;SDS011;61348;53.392;-6.248;2023-08-24T06:51:59;5.55;;;2.35;;
43706;SDS011;61348;53.392;-6.248;2023-08-24T06:54:26;4.47;;;1.60;;
43706;SDS011;61348;53.392;-6.248;2023-08-24T06:56:54;7.38;;;2.33;;
43706;SDS011;61348;53.392;-6.248;2023-08-24T06:59:21;8.13;;;1.90;;
43706;SDS011;61348;53.392;-6.248;2023-08-24T07:01:48;4.35;;;1.98;;
43706;SDS011;61348;53.392;-6.248;2023-08-24T07:04:15;5.55;;;2.15;;
43706;SDS011;61348;53.392;-6.248;2023-08-24T07:06:41;9.00;;;3.33;;
43706;SDS011;61348;53.392;-6.248;2023-08-24T07:09:11;8.55;;;2.58;;
43706;SDS011;61348;53.392;-6.248;2023-08-24T07:11:37;5.07;;;2.22;;
43706;SDS011;61348;53.392;-6.248;2023-08-24T07:14:04;6.53;;;2.55;;
43706;SDS011;61348;53.392;-6.248;2023-08-24T07:16:31;8.27;;;3.00;;
43706;SDS011;61348;53.392;-6.248;2023-08-24T07:18:58;5.80;;;2.47;;
43706;SDS011;61348;53.392;-6.248;2023-08-24T07:21:25;7.35;;;3.00;;
43706;SDS011;61348;53.392;-6.248;2023-08-24T07:23:52;5.90;;;2.40;;
43706;SDS011;61348;53.392;-6.248;2023-08-24T07:26:19;6.13;;;2.70;;
43706;SDS011;61348;53.392;-6.248;2023-08-24T07:28:45;5.18;;;2.50;;
43706;SDS011;61348;53.392;-6.248;2023-08-24T07:31:12;6.80;;;2.45;;
43706;SDS011;61348;53.392;-6.248;2023-08-24T07:33:42;5.28;;;2.33;;
43706;SDS011;61348;53.392;-6.248;2023-08-24T07:36:11;4.90;;;2.47;;
43706;SDS011;61348;53.392;-6.248;2023-08-24T07:38:38;7.55;;;2.28;;
43706;SDS011;61348;53.392;-6.248;2023-08-24T07:41:05;7.25;;;2.38;;
43706;SDS011;61348;53.392;-6.248;2023-08-24T07:43:32;8.05;;;1.67;;
43706;SDS011;61348;53.392;-6.248;2023-08-24T07:46:00;4.88;;;1.63;;
43706;SDS011;61348;53.392;-6.248;2023-08-24T07:48:27;6.93;;;1.90;;
43706;SDS011;61348;53.392;-6.248;2023-08-24T07:50:54;2.85;;;1.73;;
43706;SDS011;61348;53.392;-6.248;2023-08-24T07:53:20;5.75;;;1.42;;
43706;SDS011;61348;53.392;-6.248;2023-08-24T07:55:47;6.72;;;1.60;;
43706;SDS011;61348;53.392;-6.248;2023-08-24T07:58:14;4.65;;;1.63;;
43706;SDS011;61348;53.392;-6.248;2023-08-24T08:00:41;6.32;;;1.85;;
43706;SDS011;61348;53.392;-6.248;2023-08-24T08:03:08;6.55;;;1.85;;
43706;SDS011;61348;53.392;-6.248;2023-08-24T08:05:34;6.97;;;0.90;;
43706;SDS011;61348;53.392;-6.248;2023-08-24T08:08:01;2.72;;;1.38;;
43706;SDS011;61348;53.392;-6.248;2023-08-24T08:10:28;3.63;;;1.23;;
43706;SDS011;61348;53.392;-6.248;2023-08-24T08:12:55;5.80;;;1.90;;
43706;SDS011;61348;53.392;-6.248;2023-08-24T08:15:22;8.45;;;2.90;;
43706;SDS011;61348;53.392;-6.248;2023-08-24T08:17:49;5.65;;;1.40;;
43706;SDS011;61348;53.392;-6.248;2023-08-24T08:20:16;2.65;;;0.80;;
43706;SDS011;61348;53.392;-6.248;2023-08-24T08:22:43;9.38;;;1.67;;
43706;SDS011;61348;53.392;-6.248;2023-08-24T08:25:10;4.30;;;1.48;;
43706;SDS011;61348;53.392;-6.248;2023-08-24T08:27:38;3.35;;;1.27;;
43706;SDS011;61348;53.392;-6.248;2023-08-24T08:30:05;9.20;;;1.38;;
43706;SDS011;61348;53.392;-6.248;2023-08-24T08:32:33;3.60;;;0.82;;
43706;SDS011;61348;53.392;-6.248;2023-08-24T08:34:59;5.07;;;1.13;;
43706;SDS011;61348;53.392;-6.248;2023-08-24T08:37:27;3.97;;;0.93;;
43706;SDS011;61348;53.392;-6.248;2023-08-24T08:39:54;5.65;;;1.13;;
43706;SDS011;61348;53.392;-6.248;2023-08-24T08:42:21;9.27;;;3.25;;
43706;SDS011;61348;53.392;-6.248;2023-08-24T08:44:48;13.52;;;2.40;;
43706;SDS011;61348;53.392;-6.248;2023-08-24T08:47:18;4.53;;;0.95;;
43706;SDS011;61348;53.392;-6.248;2023-08-24T08:49:47;3.60;;;1.00;;
43706;SDS011;61348;53.392;-6.248;2023-08-24T08:52:15;4.60;;;1.30;;
43706;SDS011;61348;53.392;-6.248;2023-08-24T08:54:42;5.65;;;0.70;;
43706;SDS011;61348;53.392;-6.248;2023-08-24T08:57:08;2.88;;;0.90;;
43706;SDS011;61348;53.392;-6.248;2023-08-24T08:59:36;2.22;;;0.60;;
43706;SDS011;61348;53.392;-6.248;2023-08-24T09:02:04;3.17;;;0.80;;
43706;SDS011;61348;53.392;-6.248;2023-08-24T09:04:33;3.85;;;0.90;;
43706;SDS011;61348;53.392;-6.248;2023-08-24T09:07:00;3.60;;;0.77;;
43706;SDS011;61348;53.392;-6.248;2023-08-24T09:09:34;6.97;;;1.30;;
43706;SDS011;61348;53.392;-6.248;2023-08-24T09:12:01;5.03;;;0.90;;
43706;SDS011;61348;53.392;-6.248;2023-08-24T09:14:30;9.35;;;0.82;;
43706;SDS011;61348;53.392;-6.248;2023-08-24T09:16:57;3.92;;;0.98;;
43706;SDS011;61348;53.392;-6.248;2023-08-24T09:19:30;4.45;;;0.95;;
43706;SDS011;61348;53.392;-6.248;2023-08-24T09:21:58;7.55;;;1.27;;
43706;SDS011;61348;53.392;-6.248;2023-08-24T09:24:35;1.88;;;0.75;;
43706;SDS011;61348;53.392;-6.248;2023-08-24T09:27:13;3.58;;;0.77;;
43706;SDS011;61348;53.392;-6.248;2023-08-24T09:29:51;7.15;;;0.70;;
43706;SDS011;61348;53.392;-6.248;2023-08-24T09:32:22;11.05;;;0.90;;
43706;SDS011;61348;53.392;-6.248;2023-08-24T09:34:50;3.03;;;0.98;;
43706;SDS011;61348;53.392;-6.248;2023-08-24T09:37:17;3.70;;;1.23;;
43706;SDS011;61348;53.392;-6.248;2023-08-24T09:39:44;1.50;;;0.52;;
43706;SDS011;61348;53.392;-6.248;2023-08-24T09:42:11;2.90;;;0.50;;
43706;SDS011;61348;53.392;-6.248;2023-08-24T09:44:45;4.03;;;0.80;;
43706;SDS011;61348;53.392;-6.248;2023-08-24T09:47:12;3.55;;;0.88;;
43706;SDS011;61348;53.392;-6.248;2023-08-24T09:49:39;4.75;;;0.93;;
43706;SDS011;61348;53.392;-6.248;2023-08-24T09:52:06;2.70;;;0.57;;
43706;SDS011;61348;53.392;-6.248;2023-08-24T09:54:37;2.33;;;0.98;;
43706;SDS011;61348;53.392;-6.248;2023-08-24T09:57:07;5.15;;;1.10;;
43706;SDS011;61348;53.392;-6.248;2023-08-24T09:59:35;6.32;;;0.70;;
43706;SDS011;61348;53.392;-6.248;2023-08-24T10:02:08;8.40;;;2.65;;
43706;SDS011;61348;53.392;-6.248;2023-08-24T10:04:42;11.32;;;0.93;;
43706;SDS011;61348;53.392;-6.248;2023-08-24T10:07:10;3.35;;;0.55;;
43706;SDS011;61348;53.392;-6.248;2023-08-24T10:09:44;7.50;;;0.80;;
43706;SDS011;61348;53.392;-6.248;2023-08-24T10:12:14;8.50;;;0.93;;
43706;SDS011;61348;53.392;-6.248;2023-08-24T10:14:59;3.67;;;0.65;;
43706;SDS011;61348;53.392;-6.248;2023-08-24T10:17:31;1.70;;;0.50;;
43706;SDS011;61348;53.392;-6.248;2023-08-24T10:19:59;3.05;;;0.73;;
43706;SDS011;61348;53.392;-6.248;2023-08-24T10:22:35;2.47;;;0.60;;
43706;SDS011;61348;53.392;-6.248;2023-08-24T10:25:03;3.08;;;0.50;;
43706;SDS011;61348;53.392;-6.248;2023-08-24T10:27:30;6.65;;;0.93;;
43706;SDS011;61348;53.392;-6.248;2023-08-24T10:29:58;8.43;;;1.02;;
43706;SDS011;61348;53.392;-6.248;2023-08-24T10:32:27;2.97;;;0.68;;
43706;SDS011;61348;53.392;-6.248;2023-08-24T10:34:56;0.82;;;0.45;;
43706;SDS011;61348;53.392;-6.248;2023-08-24T10:37:26;1.98;;;0.40;;
43706;SDS011;61348;53.392;-6.248;2023-08-24T10:39:54;3.05;;;0.60;;
43706;SDS011;61348;53.392;-6.248;2023-08-24T10:42:21;4.45;;;0.82;;
43706;SDS011;61348;53.392;-6.248;2023-08-24T10:44:48;2.15;;;0.60;;
43706;SDS011;61348;53.392;-6.248;2023-08-24T10:52:23;1.98;;;1.15;;
43706;SDS011;61348;53.392;-6.248;2023-08-24T10:54:59;2.60;;;0.43;;
43706;SDS011;61348;53.392;-6.248;2023-08-24T10:57:34;3.05;;;0.52;;
43706;SDS011;61348;53.392;-6.248;2023-08-24T11:05:15;4.15;;;0.77;;
43706;SDS011;61348;53.392;-6.248;2023-08-24T11:10:34;2.15;;;0.50;;
43706;SDS011;61348;53.392;-6.248;2023-08-24T11:13:16;5.00;;;0.70;;
43706;SDS011;61348;53.392;-6.248;2023-08-24T11:15:46;2.80;;;0.40;;
43706;SDS011;61348;53.392;-6.248;2023-08-24T11:18:27;5.65;;;0.50;;
43706;SDS011;61348;53.392;-6.248;2023-08-24T11:21:04;3.53;;;0.80;;
43706;SDS011;61348;53.392;-6.248;2023-08-24T11:23:33;1.95;;;0.40;;
43706;SDS011;61348;53.392;-6.248;2023-08-24T11:26:01;1.80;;;0.50;;
43706;SDS011;61348;53.392;-6.248;2023-08-24T11:28:28;1.85;;;0.30;;
43706;SDS011;61348;53.392;-6.248;2023-08-24T11:30:57;2.13;;;0.40;;
43706;SDS011;61348;53.392;-6.248;2023-08-24T11:33:28;4.18;;;0.68;;
43706;SDS011;61348;53.392;-6.248;2023-08-24T11:36:00;1.70;;;0.40;;
43706;SDS011;61348;53.392;-6.248;2023-08-24T11:38:38;4.28;;;0.57;;
43706;SDS011;61348;53.392;-6.248;2023-08-24T11:41:14;4.65;;;1.30;;
43706;SDS011;61348;53.392;-6.248;2023-08-24T11:43:46;0.60;;;0.20;;
43706;SDS011;61348;53.392;-6.248;2023-08-24T11:46:17;0.63;;;0.50;;
43706;SDS011;61348;53.392;-6.248;2023-08-24T11:48:45;0.60;;;0.33;;
43706;SDS011;61348;53.392;-6.248;2023-08-24T11:51:12;0.73;;;0.17;;
43706;SDS011;61348;53.392;-6.248;2023-08-24T11:53:45;1.40;;;0.40;;
43706;SDS011;61348;53.392;-6.248;2023-08-24T11:56:13;1.25;;;0.28;;
43706;SDS011;61348;53.392;-6.248;2023-08-24T11:58:41;3.90;;;0.35;;
43706;SDS011;61348;53.392;-6.248;2023-08-24T12:01:09;2.55;;;0.40;;
43706;SDS011;61348;53.392;-6.248;2023-08-24T12:03:38;1.88;;;0.60;;
43706;SDS011;61348;53.392;-6.248;2023-08-24T12:06:13;2.20;;;0.47;;
43706;SDS011;61348;53.392;-6.248;2023-08-24T12:08:45;1.27;;;0.30;;
43706;SDS011;61348;53.392;-6.248;2023-08-24T12:11:17;3.30;;;0.75;;
43706;SDS011;61348;53.392;-6.248;2023-08-24T12:13:49;1.23;;;0.13;;
43706;SDS011;61348;53.392;-6.248;2023-08-24T12:18:49;1.38;;;0.30;;
43706;SDS011;61348;53.392;-6.248;2023-08-24T12:21:18;4.72;;;0.40;;
43706;SDS011;61348;53.392;-6.248;2023-08-24T12:23:58;1.75;;;0.70;;
43706;SDS011;61348;53.392;-6.248;2023-08-24T12:29:01;1.17;;;0.30;;
43706;SDS011;61348;53.392;-6.248;2023-08-24T12:31:35;1.30;;;0.47;;
43706;SDS011;61348;53.392;-6.248;2023-08-24T12:34:05;4.80;;;0.50;;
43706;SDS011;61348;53.392;-6.248;2023-08-24T12:36:33;1.93;;;0.40;;
43706;SDS011;61348;53.392;-6.248;2023-08-24T12:39:03;2.33;;;0.52;;
43706;SDS011;61348;53.392;-6.248;2023-08-24T12:41:31;7.35;;;0.77;;
43706;SDS011;61348;53.392;-6.248;2023-08-24T12:43:58;1.67;;;0.28;;
43706;SDS011;61348;53.392;-6.248;2023-08-24T12:46:25;1.75;;;0.70;;
43706;SDS011;61348;53.392;-6.248;2023-08-24T12:48:56;6.13;;;0.80;;
43706;SDS011;61348;53.392;-6.248;2023-08-24T12:51:23;0.60;;;0.20;;
43706;SDS011;61348;53.392;-6.248;2023-08-24T12:53:51;2.42;;;1.50;;
43706;SDS011;61348;53.392;-6.248;2023-08-24T12:56:18;2.90;;;0.20;;
43706;SDS011;61348;53.392;-6.248;2023-08-24T12:58:44;2.22;;;0.20;;
43706;SDS011;61348;53.392;-6.248;2023-08-24T13:01:11;3.05;;;0.32;;
43706;SDS011;61348;53.392;-6.248;2023-08-24T13:03:38;4.82;;;0.50;;
43706;SDS011;61348;53.392;-6.248;2023-08-24T13:06:08;2.28;;;0.30;;
43706;SDS011;61348;53.392;-6.248;2023-08-24T13:08:50;1.48;;;0.38;;
43706;SDS011;61348;53.392;-6.248;2023-08-24T13:11:19;0.95;;;0.20;;
43706;SDS011;61348;53.392;-6.248;2023-08-24T13:13:46;0.98;;;0.20;;
43706;SDS011;61348;53.392;-6.248;2023-08-24T13:16:12;3.40;;;0.20;;
43706;SDS011;61348;53.392;-6.248;2023-08-24T13:18:40;1.95;;;0.38;;
43706;SDS011;61348;53.392;-6.248;2023-08-24T13:21:07;1.08;;;0.40;;
43706;SDS011;61348;53.392;-6.248;2023-08-24T13:23:33;0.32;;;0.20;;
43706;SDS011;61348;53.392;-6.248;2023-08-24T13:26:00;0.70;;;0.20;;
43706;SDS011;61348;53.392;-6.248;2023-08-24T13:28:27;0.75;;;0.20;;
43706;SDS011;61348;53.392;-6.248;2023-08-24T13:30:56;0.13;;;0.10;;
43706;SDS011;61348;53.392;-6.248;2023-08-24T13:33:23;3.42;;;0.30;;
43706;SDS011;61348;53.392;-6.248;2023-08-24T13:35:49;0.47;;;0.15;;
43706;SDS011;61348;53.392;-6.248;2023-08-24T13:38:16;0.80;;;0.22;;
43706;SDS011;61348;53.392;-6.248;2023-08-24T13:40:43;2.58;;;0.55;;
43706;SDS011;61348;53.392;-6.248;2023-08-24T13:43:13;3.95;;;0.43;;
43706;SDS011;61348;53.392;-6.248;2023-08-24T13:45:40;0.63;;;0.20;;
43706;SDS011;61348;53.392;-6.248;2023-08-24T13:48:06;2.63;;;0.20;;
43706;SDS011;61348;53.392;-6.248;2023-08-24T13:50:34;1.17;;;0.40;;
43706;SDS011;61348;53.392;-6.248;2023-08-24T13:53:01;4.35;;;0.40;;
43706;SDS011;61348;53.392;-6.248;2023-08-24T13:55:28;2.25;;;1.13;;
43706;SDS011;61348;53.392;-6.248;2023-08-24T13:57:55;1.05;;;0.50;;
43706;SDS011;61348;53.392;-6.248;2023-08-24T14:00:22;0.75;;;0.30;;
43706;SDS011;61348;53.392;-6.248;2023-08-24T14:02:49;1.17;;;0.40;;
43706;SDS011;61348;53.392;-6.248;2023-08-24T14:05:17;0.73;;;0.20;;
43706;SDS011;61348;53.392;-6.248;2023-08-24T14:07:44;3.00;;;0.30;;
43706;SDS011;61348;53.392;-6.248;2023-08-24T14:10:10;1.70;;;0.40;;
43706;SDS011;61348;53.392;-6.248;2023-08-24T14:12:38;2.13;;;0.38;;
43706;SDS011;61348;53.392;-6.248;2023-08-24T14:15:05;0.90;;;0.20;;
43706;SDS011;61348;53.392;-6.248;2023-08-24T14:17:33;3.50;;;0.40;;
43706;SDS011;61348;53.392;-6.248;2023-08-24T14:20:00;0.85;;;0.40;;
43706;SDS011;61348;53.392;-6.248;2023-08-24T14:22:28;0.30;;;0.20;;
43706;SDS011;61348;53.392;-6.248;2023-08-24T14:24:54;2.63;;;0.32;;
43706;SDS011;61348;53.392;-6.248;2023-08-24T14:27:21;2.95;;;0.30;;
43706;SDS011;61348;53.392;-6.248;2023-08-24T14:29:48;0.55;;;0.20;;
43706;SDS011;61348;53.392;-6.248;2023-08-24T14:32:15;1.75;;;0.50;;
43706;SDS011;61348;53.392;-6.248;2023-08-24T14:34:42;0.85;;;0.30;;
43706;SDS011;61348;53.392;-6.248;2023-08-24T14:37:09;1.13;;;0.30;;
43706;SDS011;61348;53.392;-6.248;2023-08-24T14:39:36;2.47;;;0.30;;
43706;SDS011;61348;53.392;-6.248;2023-08-24T14:42:03;2.28;;;0.25;;
43706;SDS011;61348;53.392;-6.248;2023-08-24T14:44:31;6.25;;;1.42;;
43706;SDS011;61348;53.392;-6.248;2023-08-24T14:46:57;1.05;;;0.32;;
43706;SDS011;61348;53.392;-6.248;2023-08-24T14:49:24;1.02;;;0.25;;
43706;SDS011;61348;53.392;-6.248;2023-08-24T14:51:51;0.98;;;0.17;;
43706;SDS011;61348;53.392;-6.248;2023-08-24T14:54:18;7.88;;;1.10;;
43706;SDS011;61348;53.392;-6.248;2023-08-24T14:56:44;1.95;;;0.20;;
43706;SDS011;61348;53.392;-6.248;2023-08-24T14:59:11;1.88;;;0.32;;
43706;SDS011;61348;53.392;-6.248;2023-08-24T15:01:38;1.30;;;0.40;;